Time;durP1;ratioP1;P1;durP2;ratioP2;P2;SDS_P1;SDS_P2;PMS_P1;PMS_P2;Temp;Humidity;BMP_temperature;BMP_pressure;BME280_temperature;BME280_humidity;BME280_pressure;Samples;Min_cycle;Max_cycle;Signal;HPM_P1;HPM_P2
2023/11/15 00:00:18;;;;;;;1.83;0.60;;;11.20;1.00;;;;;;7380382;19;20011;-74
2023/11/15 00:02:48;;;;;;;3.97;0.82;;;11.10;1.00;;;;;;7383197;19;20011;-74
2023/11/15 00:05:18;;;;;;;2.30;0.65;;;11.20;1.00;;;;;;7381389;19;20028;-73
2023/11/15 00:07:55;;;;;;;3.35;0.85;;;11.10;1.00;;;;;;7382396;19;20018;-74
2023/11/15 00:10:25;;;;;;;1.60;0.50;;;11.10;1.00;;;;;;7381306;19;20015;-74
2023/11/15 00:12:55;;;;;;;1.00;0.60;;;11.20;1.00;;;;;;7380057;19;20006;-74
2023/11/15 00:15:26;;;;;;;2.15;0.50;;;11.20;1.00;;;;;;7379216;19;20015;-73
2023/11/15 00:18:04;;;;;;;1.15;0.40;;;11.10;1.00;;;;;;7380967;19;20003;-73
2023/11/15 00:20:35;;;;;;;4.60;0.95;;;11.10;1.00;;;;;;7382576;19;20038;-73
2023/11/15 00:23:08;;;;;;;3.00;0.57;;;11.10;1.00;;;;;;7379791;19;20010;-74
2023/11/15 00:25:38;;;;;;;3.88;1.02;;;11.00;1.00;;;;;;7374257;19;20026;-73
2023/11/15 00:28:09;;;;;;;1.73;0.70;;;11.00;1.00;;;;;;7376606;19;20024;-73
2023/11/15 00:30:39;;;;;;;3.10;0.60;;;10.90;1.00;;;;;;7380686;19;20475;-73
2023/11/15 00:33:11;;;;;;;3.40;0.80;;;11.00;1.00;;;;;;7378134;19;20413;-73
2023/11/15 00:35:41;;;;;;;2.42;0.80;;;11.00;1.00;;;;;;7379547;19;20014;-73
2023/11/15 00:38:14;;;;;;;2.92;0.57;;;11.00;1.00;;;;;;7379876;19;20738;-73
2023/11/15 00:40:44;;;;;;;3.83;0.82;;;10.90;1.00;;;;;;7380350;19;20002;-73
2023/11/15 00:43:15;;;;;;;3.42;0.85;;;10.80;1.00;;;;;;7381739;19;20058;-74
2023/11/15 00:45:45;;;;;;;6.18;1.00;;;10.60;1.00;;;;;;7381649;19;20022;-73
2023/11/15 00:48:15;;;;;;;3.20;0.70;;;10.40;1.00;;;;;;7378642;19;20031;-73
2023/11/15 00:50:45;;;;;;;2.28;0.90;;;10.30;1.00;;;;;;7380576;19;20074;-76
2023/11/15 00:53:19;;;;;;;3.75;0.90;;;10.30;1.00;;;;;;7380087;19;20014;-74
2023/11/15 00:55:49;;;;;;;3.30;1.00;;;10.20;1.00;;;;;;7378635;19;20014;-75
2023/11/15 00:58:19;;;;;;;1.95;0.60;;;10.20;1.00;;;;;;7379455;19;20014;-75
2023/11/15 01:00:49;;;;;;;2.60;0.98;;;10.10;1.00;;;;;;7380328;19;20015;-73
2023/11/15 01:03:26;;;;;;;3.15;0.80;;;9.90;14.00;;;;;;7378226;19;20034;-76
2023/11/15 01:05:57;;;;;;;2.20;0.80;;;9.70;21.30;;;;;;7379749;19;20017;-73
2023/11/15 01:08:30;;;;;;;2.08;0.82;;;9.60;25.30;;;;;;7378040;19;20461;-74
2023/11/15 01:11:00;;;;;;;3.17;0.80;;;9.50;37.10;;;;;;7379724;19;20066;-74
2023/11/15 01:13:30;;;;;;;5.93;1.30;;;9.50;52.70;;;;;;7378596;19;20032;-74
2023/11/15 01:16:00;;;;;;;5.05;1.30;;;9.40;60.60;;;;;;7379712;19;20055;-74
2023/11/15 01:18:33;;;;;;;4.65;1.60;;;9.50;72.00;;;;;;7379042;19;20006;-74
2023/11/15 01:21:05;;;;;;;5.07;1.05;;;9.50;62.70;;;;;;7379155;19;20006;-74
2023/11/15 01:23:38;;;;;;;4.47;1.50;;;9.60;56.80;;;;;;7379557;19;20144;-74
2023/11/15 01:26:08;;;;;;;4.60;1.00;;;9.60;43.80;;;;;;7378451;19;20017;-74
2023/11/15 01:28:38;;;;;;;8.88;1.25;;;9.60;30.20;;;;;;7377921;19;20015;-73
2023/11/15 01:31:09;;;;;;;4.82;1.35;;;9.60;23.50;;;;;;7377389;19;20042;-73
2023/11/15 01:33:39;;;;;;;3.80;0.80;;;9.70;8.30;;;;;;7379630;19;20078;-73
2023/11/15 01:36:11;;;;;;;6.28;1.23;;;9.60;9.50;;;;;;7381961;19;20014;-73
2023/11/15 01:38:44;;;;;;;5.28;1.10;;;9.60;9.40;;;;;;7378300;19;20018;-73
2023/11/15 01:41:16;;;;;;;3.05;1.10;;;9.70;5.40;;;;;;7379910;19;20360;-74
2023/11/15 01:43:46;;;;;;;3.53;1.08;;;9.70;1.00;;;;;;7378471;19;20049;-74
2023/11/15 01:46:18;;;;;;;4.15;1.08;;;9.70;1.00;;;;;;7379622;19;20043;-73
2023/11/15 01:48:48;;;;;;;5.68;1.23;;;9.80;1.00;;;;;;7378195;19;20014;-73
2023/11/15 01:51:18;;;;;;;3.60;1.15;;;9.80;1.00;;;;;;7377617;19;20018;-73
2023/11/15 01:53:51;;;;;;;5.43;1.27;;;9.90;1.00;;;;;;7377022;19;20072;-74
2023/11/15 01:56:21;;;;;;;2.10;0.80;;;9.80;1.00;;;;;;7377336;19;20047;-73
2023/11/15 01:58:52;;;;;;;6.25;1.08;;;9.90;1.00;;;;;;7379904;19;20015;-74
2023/11/15 02:01:23;;;;;;;4.40;1.08;;;10.00;1.00;;;;;;7378162;19;20010;-74
2023/11/15 02:03:53;;;;;;;3.20;1.30;;;10.00;1.00;;;;;;7379654;19;20030;-74
2023/11/15 02:06:23;;;;;;;4.50;1.15;;;10.00;1.00;;;;;;7378830;19;20014;-74
2023/11/15 02:08:56;;;;;;;3.10;1.10;;;10.00;1.00;;;;;;7379713;19;20018;-74
2023/11/15 02:11:27;;;;;;;3.92;0.93;;;10.00;1.00;;;;;;7378771;19;20018;-74
2023/11/15 02:13:58;;;;;;;2.38;0.93;;;10.00;1.00;;;;;;7378578;19;20017;-74
2023/11/15 02:16:29;;;;;;;2.58;0.90;;;10.10;1.00;;;;;;7376829;19;20646;-74
2023/11/15 02:18:59;;;;;;;5.05;1.20;;;10.00;1.00;;;;;;7378371;19;20090;-73
2023/11/15 02:21:29;;;;;;;4.07;1.10;;;10.00;1.00;;;;;;7378282;19;20031;-74
2023/11/15 02:24:02;;;;;;;4.47;1.00;;;9.90;1.00;;;;;;7378048;19;20017;-74
2023/11/15 02:26:32;;;;;;;2.63;0.80;;;9.90;1.00;;;;;;7378644;19;20026;-75
2023/11/15 02:29:02;;;;;;;2.30;0.90;;;9.80;9.00;;;;;;7377465;19;20617;-74
2023/11/15 02:31:32;;;;;;;3.30;1.10;;;9.80;20.90;;;;;;7377264;19;20086;-74
2023/11/15 02:34:03;;;;;;;2.65;1.10;;;9.80;29.00;;;;;;7378633;19;20102;-74
2023/11/15 02:36:33;;;;;;;4.65;1.30;;;9.70;43.20;;;;;;7377982;19;20027;-75
2023/11/15 02:39:06;;;;;;;3.72;1.42;;;9.60;56.40;;;;;;7379414;19;20022;-74
2023/11/15 02:41:36;;;;;;;5.97;1.58;;;9.50;69.80;;;;;;7377958;19;20006;-74
2023/11/15 02:44:08;;;;;;;6.43;1.60;;;9.50;73.30;;;;;;7377230;19;20011;-74
2023/11/15 02:46:39;;;;;;;4.72;1.45;;;9.50;73.00;;;;;;7378861;19;20028;-74
2023/11/15 02:49:09;;;;;;;5.45;1.50;;;9.60;60.80;;;;;;7378722;19;19999;-74
2023/11/15 02:51:39;;;;;;;3.20;1.27;;;9.50;63.30;;;;;;7377629;19;20361;-74
2023/11/15 02:54:11;;;;;;;4.97;1.48;;;9.50;58.80;;;;;;7382189;19;20022;-75
2023/11/15 02:56:42;;;;;;;4.38;1.70;;;9.50;60.00;;;;;;7385075;19;20479;-74
2023/11/15 02:59:12;;;;;;;6.10;1.35;;;9.50;54.20;;;;;;7385445;19;20584;-74
2023/11/15 03:01:51;;;;;;;4.88;1.95;;;9.60;46.20;;;;;;7383810;19;20007;-74
2023/11/15 03:04:22;;;;;;;3.95;1.40;;;9.70;40.50;;;;;;7376423;19;20493;-74
2023/11/15 03:06:52;;;;;;;6.53;1.45;;;9.70;32.70;;;;;;7382598;19;20036;-74
2023/11/15 03:09:25;;;;;;;3.13;1.10;;;9.60;29.50;;;;;;7380163;19;20478;-74
2023/11/15 03:11:55;;;;;;;4.35;1.30;;;9.60;27.80;;;;;;7382445;19;20025;-74
2023/11/15 03:14:25;;;;;;;6.93;1.52;;;9.60;30.70;;;;;;7382118;19;20082;-74
2023/11/15 03:16:56;;;;;;;5.80;1.40;;;9.50;32.80;;;;;;7383495;19;20670;-74
2023/11/15 03:19:26;;;;;;;3.92;1.40;;;9.50;32.40;;;;;;7381665;19;20094;-74
2023/11/15 03:21:55;;;;;;;4.28;1.48;;;9.60;24.50;;;;;;7384587;19;20023;-74
2023/11/15 03:24:28;;;;;;;2.75;0.98;;;9.60;21.00;;;;;;7386183;19;20023;-74
2023/11/15 03:26:58;;;;;;;3.90;1.40;;;9.50;19.50;;;;;;7386505;19;20305;-72
2023/11/15 03:29:28;;;;;;;2.78;1.23;;;9.60;14.00;;;;;;7383066;19;20502;-74
2023/11/15 03:31:58;;;;;;;4.00;1.27;;;9.60;5.80;;;;;;7380835;19;20016;-73
2023/11/15 03:34:29;;;;;;;3.80;1.63;;;9.60;1.90;;;;;;7380623;19;20023;-73
2023/11/15 03:37:00;;;;;;;2.85;1.00;;;9.70;1.00;;;;;;7382011;19;20018;-73
2023/11/15 03:39:34;;;;;;;6.53;1.35;;;9.60;1.00;;;;;;7382175;19;20026;-73
2023/11/15 03:42:05;;;;;;;4.10;1.00;;;9.70;1.00;;;;;;7383886;19;20003;-74
2023/11/15 03:44:35;;;;;;;2.47;0.82;;;9.70;1.00;;;;;;7380451;19;20022;-73
2023/11/15 03:47:05;;;;;;;2.90;0.70;;;9.70;1.00;;;;;;7380625;19;20018;-73
2023/11/15 03:49:35;;;;;;;2.85;1.02;;;9.60;1.00;;;;;;7382211;19;20052;-74
2023/11/15 03:52:05;;;;;;;4.07;1.13;;;9.50;1.00;;;;;;7384333;19;20034;-74
2023/11/15 03:54:39;;;;;;;1.92;0.95;;;9.60;1.30;;;;;;7381150;19;20087;-74
2023/11/15 03:57:11;;;;;;;1.80;1.10;;;9.60;3.30;;;;;;7380226;19;20006;-74
2023/11/15 03:59:41;;;;;;;3.45;1.10;;;9.60;4.10;;;;;;7383723;19;20014;-74
2023/11/15 04:02:11;;;;;;;5.05;1.40;;;9.60;4.70;;;;;;7376787;19;20031;-74
2023/11/15 04:04:41;;;;;;;3.58;1.20;;;9.60;6.40;;;;;;7381739;19;20006;-74
2023/11/15 04:07:12;;;;;;;5.05;1.42;;;9.60;9.40;;;;;;7382763;19;20007;-74
2023/11/15 04:09:45;;;;;;;6.32;1.52;;;9.60;11.20;;;;;;7383731;19;20010;-73
2023/11/15 04:12:15;;;;;;;5.60;1.63;;;9.70;8.40;;;;;;7382350;19;20002;-75
2023/11/15 04:14:46;;;;;;;4.38;1.52;;;9.70;10.10;;;;;;7374542;19;20014;-72
2023/11/15 04:17:17;;;;;;;6.57;1.20;;;9.70;10.40;;;;;;7377851;19;20010;-73
2023/11/15 04:19:47;;;;;;;7.05;1.48;;;9.70;10.10;;;;;;7381256;19;20014;-72
2023/11/15 04:22:17;;;;;;;4.45;1.92;;;9.60;12.90;;;;;;7382415;19;20041;-73
2023/11/15 04:24:52;;;;;;;5.25;1.55;;;9.60;10.40;;;;;;7381852;19;20348;-74
2023/11/15 04:27:22;;;;;;;6.00;1.40;;;9.60;12.00;;;;;;7381594;19;20018;-73
2023/11/15 04:29:53;;;;;;;5.38;1.50;;;9.60;13.50;;;;;;7382454;19;20014;-73
2023/11/15 04:32:23;;;;;;;3.17;1.48;;;9.60;9.40;;;;;;7378503;19;20022;-73
2023/11/15 04:34:53;;;;;;;5.45;1.40;;;9.60;12.00;;;;;;7377396;19;20014;-72
2023/11/15 04:37:24;;;;;;;3.78;1.35;;;9.50;15.20;;;;;;7380320;19;20417;-73
2023/11/15 04:39:56;;;;;;;8.52;1.85;;;9.50;15.60;;;;;;7382628;19;20078;-73
2023/11/15 04:42:26;;;;;;;4.50;1.58;;;9.50;18.20;;;;;;7381301;19;20395;-73
2023/11/15 04:44:57;;;;;;;9.40;1.65;;;9.50;16.90;;;;;;7380307;19;20014;-73
2023/11/15 04:47:27;;;;;;;7.63;2.00;;;9.50;16.00;;;;;;7381489;19;20011;-73
2023/11/15 04:49:57;;;;;;;6.80;2.17;;;9.50;16.80;;;;;;7381505;19;20007;-73
2023/11/15 04:52:25;;;;;;;5.15;1.73;;;9.50;18.70;;;;;;7381921;19;20018;-72
2023/11/15 04:54:57;;;;;;;7.70;1.73;;;9.50;19.30;;;;;;7379315;19;20333;-74
2023/11/15 04:57:29;;;;;;;3.63;1.45;;;9.50;15.80;;;;;;7380118;19;20014;-73
2023/11/15 04:59:59;;;;;;;7.28;1.75;;;9.60;11.50;;;;;;7379417;19;20029;-73
2023/11/15 05:02:29;;;;;;;3.92;1.63;;;9.60;14.20;;;;;;7376481;19;20018;-73
2023/11/15 05:04:59;;;;;;;6.80;1.58;;;9.70;10.10;;;;;;7378163;19;20011;-74
2023/11/15 05:07:32;;;;;;;3.22;1.30;;;9.70;11.00;;;;;;7378598;19;20071;-73
2023/11/15 05:10:05;;;;;;;5.95;1.10;;;9.70;7.90;;;;;;7377548;19;20021;-73
2023/11/15 05:12:36;;;;;;;3.00;1.40;;;9.80;3.70;;;;;;7376082;19;20507;-73
2023/11/15 05:15:07;;;;;;;3.90;1.25;;;9.80;4.40;;;;;;7374081;19;20019;-73
2023/11/15 05:17:37;;;;;;;4.53;1.27;;;9.80;9.70;;;;;;7377104;19;20026;-73
2023/11/15 05:20:10;;;;;;;3.47;1.30;;;9.70;14.30;;;;;;7375649;19;20030;-72
2023/11/15 05:22:40;;;;;;;5.18;1.00;;;9.70;20.40;;;;;;7376492;19;20013;-73
2023/11/15 05:25:16;;;;;;;5.88;1.08;;;9.70;27.00;;;;;;7377443;19;20019;-73
2023/11/15 05:27:47;;;;;;;2.45;1.00;;;9.60;48.00;;;;;;7379492;19;20058;-73
2023/11/15 05:30:18;;;;;;;2.92;1.10;;;9.50;69.00;;;;;;7375868;19;20011;-73
2023/11/15 05:32:48;;;;;;;6.97;1.55;;;9.50;91.70;;;;;;7377220;19;20033;-72
2023/11/15 05:35:18;;;;;;;4.50;1.55;;;9.40;99.90;;;;;;7376134;19;20467;-73
2023/11/15 05:37:48;;;;;;;6.25;1.73;;;9.40;99.90;;;;;;7376225;19;20487;-73
2023/11/15 05:40:21;;;;;;;2.95;1.10;;;9.40;99.90;;;;;;7377950;19;20017;-73
2023/11/15 05:42:52;;;;;;;7.32;1.80;;;9.30;99.90;;;;;;7376909;19;20019;-73
2023/11/15 05:45:22;;;;;;;5.53;1.60;;;9.30;99.90;;;;;;7375355;19;20031;-73
2023/11/15 05:47:52;;;;;;;9.70;2.20;;;9.30;99.90;;;;;;7377302;19;20006;-73
2023/11/15 05:50:22;;;;;;;7.93;2.22;;;9.30;99.90;;;;;;7376777;19;20068;-73
2023/11/15 05:52:52;;;;;;;3.33;1.38;;;9.40;99.90;;;;;;7378524;19;20482;-74
2023/11/15 05:55:25;;;;;;;10.27;2.40;;;9.40;99.90;;;;;;7378845;19;20417;-73
2023/11/15 05:57:55;;;;;;;8.63;2.13;;;9.40;99.90;;;;;;7378741;19;20439;-73
2023/11/15 06:00:25;;;;;;;8.00;2.35;;;9.40;99.90;;;;;;7378246;19;20487;-73
2023/11/15 06:02:56;;;;;;;7.68;2.20;;;9.50;92.40;;;;;;7381848;19;20018;-73
2023/11/15 06:05:26;;;;;;;6.63;1.80;;;9.50;77.50;;;;;;7376813;19;20036;-73
2023/11/15 06:07:56;;;;;;;6.45;2.13;;;9.50;76.20;;;;;;7377143;19;20014;-73
2023/11/15 06:10:29;;;;;;;6.15;2.05;;;9.50;74.40;;;;;;7375554;19;20018;-73
2023/11/15 06:12:59;;;;;;;4.82;1.80;;;9.50;73.80;;;;;;7375785;19;20018;-73
2023/11/15 06:15:29;;;;;;;4.22;1.67;;;9.50;66.40;;;;;;7375119;19;20050;-74
2023/11/15 06:17:59;;;;;;;5.93;1.48;;;9.50;51.50;;;;;;7377038;19;20015;-74
2023/11/15 06:20:29;;;;;;;4.38;1.67;;;9.50;50.90;;;;;;7377636;19;20490;-74
2023/11/15 06:22:59;;;;;;;4.10;1.20;;;9.50;35.90;;;;;;7375974;19;20431;-74
2023/11/15 06:25:32;;;;;;;5.28;1.58;;;9.50;26.90;;;;;;7373333;19;20462;-73
2023/11/15 06:28:03;;;;;;;4.25;1.23;;;9.50;28.50;;;;;;7379263;19;20081;-73
2023/11/15 06:30:34;;;;;;;3.28;0.98;;;9.50;25.60;;;;;;7382367;19;20010;-73
2023/11/15 06:33:04;;;;;;;2.63;1.02;;;9.50;23.40;;;;;;7383213;19;20383;-72
2023/11/15 06:35:35;;;;;;;2.25;1.00;;;9.50;16.20;;;;;;7382600;19;20032;-74
2023/11/15 06:38:05;;;;;;;2.85;1.00;;;9.50;20.10;;;;;;7383421;19;20007;-73
2023/11/15 06:40:38;;;;;;;2.33;1.23;;;9.50;23.30;;;;;;7382008;19;20014;-74
2023/11/15 06:43:08;;;;;;;3.95;1.10;;;9.50;23.60;;;;;;7382315;19;20486;-73
2023/11/15 06:45:38;;;;;;;3.75;1.55;;;9.50;25.60;;;;;;7382270;19;20041;-73
2023/11/15 06:48:11;;;;;;;3.08;1.40;;;9.40;34.70;;;;;;7382955;19;20478;-74
2023/11/15 06:50:42;;;;;;;6.32;1.40;;;9.40;36.80;;;;;;7383524;19;20041;-74
2023/11/15 06:53:13;;;;;;;3.30;1.17;;;9.40;45.80;;;;;;7382275;19;20360;-74
2023/11/15 06:55:46;;;;;;;2.90;1.23;;;9.40;53.40;;;;;;7380436;19;20102;-75
2023/11/15 06:58:19;;;;;;;8.18;1.63;;;9.30;57.40;;;;;;7381479;19;20017;-74
2023/11/15 07:00:49;;;;;;;5.78;1.40;;;9.30;60.30;;;;;;7382960;19;20040;-73
2023/11/15 07:03:22;;;;;;;5.45;1.35;;;9.30;60.80;;;;;;7381841;19;20010;-74
2023/11/15 07:05:53;;;;;;;4.78;1.33;;;9.30;65.00;;;;;;7379919;19;20030;-73
2023/11/15 07:08:23;;;;;;;4.90;2.03;;;9.30;69.60;;;;;;7383095;19;20475;-74
2023/11/15 07:10:56;;;;;;;3.33;1.60;;;9.30;65.40;;;;;;7382748;19;20003;-72
2023/11/15 07:13:27;;;;;;;8.10;1.88;;;9.30;61.70;;;;;;7382177;19;20015;-73
2023/11/15 07:16:01;;;;;;;5.63;2.13;;;9.30;57.70;;;;;;7380297;19;20018;-73
2023/11/15 07:18:33;;;;;;;4.25;1.85;;;9.40;51.70;;;;;;7381098;19;20009;-73
2023/11/15 07:21:03;;;;;;;5.65;1.80;;;9.40;46.50;;;;;;7382179;19;20018;-73
2023/11/15 07:23:34;;;;;;;6.30;2.00;;;9.50;40.40;;;;;;7379590;19;20018;-73
2023/11/15 07:26:07;;;;;;;5.43;1.80;;;9.60;27.90;;;;;;7380017;19;20039;-72
2023/11/15 07:28:41;;;;;;;6.38;2.17;;;9.60;25.10;;;;;;7379593;19;20680;-73
2023/11/15 07:31:13;;;;;;;;;;;9.70;22.30;;;;;;7381029;19;20589;-73
2023/11/15 07:33:43;;;;;;;8.93;2.70;;;9.80;14.80;;;;;;7381833;19;19927;-73
2023/11/15 07:36:13;;;;;;;5.40;2.22;;;9.80;13.00;;;;;;7379139;19;20030;-74
2023/11/15 07:38:43;;;;;;;8.25;2.40;;;9.90;10.70;;;;;;7381216;19;20033;-73
2023/11/15 07:41:18;;;;;;;8.50;2.08;;;9.90;6.50;;;;;;7379873;19;20026;-73
2023/11/15 07:43:49;;;;;;;5.72;1.77;;;10.00;5.80;;;;;;7381743;19;20026;-72
2023/11/15 07:46:19;;;;;;;7.95;1.90;;;10.00;2.10;;;;;;7381592;19;20007;-72
2023/11/15 07:48:49;;;;;;;6.53;2.05;;;10.00;2.00;;;;;;7382826;19;20007;-72
2023/11/15 07:51:20;;;;;;;7.53;2.25;;;10.00;1.00;;;;;;7381722;19;20006;-72
2023/11/15 07:53:50;;;;;;;11.23;2.13;;;10.00;1.00;;;;;;7381251;19;20035;-72
2023/11/15 07:56:23;;;;;;;8.13;2.17;;;10.10;1.00;;;;;;7381460;19;20661;-73
2023/11/15 07:58:54;;;;;;;8.52;2.20;;;10.10;1.00;;;;;;7381512;19;20484;-73
2023/11/15 08:01:25;;;;;;;7.03;1.95;;;10.20;1.00;;;;;;7380028;19;20150;-73
2023/11/15 08:03:57;;;;;;;6.55;2.05;;;10.20;1.00;;;;;;7379875;19;20006;-73
2023/11/15 08:06:28;;;;;;;7.30;2.80;;;10.20;1.00;;;;;;7381970;19;20031;-73
2023/11/15 08:08:58;;;;;;;6.22;2.08;;;10.30;1.00;;;;;;7382554;19;20478;-73
2023/11/15 08:11:32;;;;;;;8.40;1.80;;;10.30;1.00;;;;;;7380149;19;20010;-73
2023/11/15 08:14:06;;;;;;;7.03;1.80;;;10.40;1.00;;;;;;7379583;19;20011;-72
2023/11/15 08:16:36;;;;;;;9.00;2.25;;;10.50;1.00;;;;;;7380570;19;20113;-73
2023/11/15 08:19:09;;;;;;;8.63;1.85;;;10.50;8.70;;;;;;7380200;19;20014;-73
2023/11/15 08:21:39;;;;;;;7.13;2.03;;;10.40;1.30;;;;;;7380937;19;20098;-74
2023/11/15 08:24:13;;;;;;;4.65;1.73;;;10.40;1.40;;;;;;7379854;19;20102;-75
2023/11/15 08:26:46;;;;;;;5.32;1.50;;;10.50;1.00;;;;;;7378918;19;20018;-74
2023/11/15 08:29:16;;;;;;;5.00;1.35;;;10.60;1.00;;;;;;7381537;19;20018;-74
2023/11/15 08:31:47;;;;;;;4.15;1.70;;;10.50;1.00;;;;;;7380372;19;20037;-73
2023/11/15 08:34:20;;;;;;;6.88;2.00;;;10.60;1.00;;;;;;7381293;19;21195;-74
2023/11/15 08:36:53;;;;;;;6.05;1.30;;;10.60;1.00;;;;;;7380620;19;20037;-74
2023/11/15 08:39:23;;;;;;;6.93;2.30;;;10.60;1.00;;;;;;7379802;19;20014;-73
2023/11/15 08:41:55;;;;;;;5.05;1.42;;;10.60;1.00;;;;;;7385500;19;20067;-73
2023/11/15 08:44:26;;;;;;;7.18;1.77;;;10.60;1.00;;;;;;7383990;19;20017;-72
2023/11/15 08:46:58;;;;;;;5.90;1.80;;;10.50;1.00;;;;;;7380931;19;20370;-72
2023/11/15 08:49:28;;;;;;;5.63;1.00;;;10.50;1.00;;;;;;7380043;19;20073;-73
2023/11/15 08:51:59;;;;;;;2.28;1.10;;;10.60;1.00;;;;;;7379377;19;20023;-73
2023/11/15 08:54:29;;;;;;;4.55;1.73;;;10.80;1.00;;;;;;7379672;19;20021;-74
2023/11/15 08:57:01;;;;;;;3.33;1.33;;;10.80;1.00;;;;;;7382624;19;20010;-73
2023/11/15 08:59:34;;;;;;;4.05;1.25;;;10.90;1.00;;;;;;7380259;19;20098;-74
2023/11/15 09:02:05;;;;;;;4.57;1.67;;;10.90;1.00;;;;;;7381281;19;20010;-74
2023/11/15 09:04:35;;;;;;;5.72;1.35;;;10.90;1.00;;;;;;7379565;19;20009;-74
2023/11/15 09:07:07;;;;;;;5.15;1.75;;;10.90;1.00;;;;;;7380334;19;20014;-74
2023/11/15 09:09:39;;;;;;;4.63;1.48;;;11.00;1.00;;;;;;7380389;19;20466;-74
2023/11/15 09:12:13;;;;;;;4.70;1.58;;;11.10;1.00;;;;;;7380226;19;20116;-73
2023/11/15 09:14:43;;;;;;;5.35;1.27;;;11.00;1.00;;;;;;7378472;19;20011;-73
2023/11/15 09:17:16;;;;;;;5.82;1.65;;;11.10;1.00;;;;;;7379827;19;20017;-73
2023/11/15 09:19:49;;;;;;;3.13;1.30;;;11.10;1.00;;;;;;7379989;19;20377;-73
2023/11/15 09:22:19;;;;;;;4.22;1.30;;;11.20;1.00;;;;;;7381069;19;20014;-73
2023/11/15 09:24:53;;;;;;;3.60;1.38;;;11.20;1.00;;;;;;7378137;19;20010;-73
2023/11/15 09:27:42;;;;;;;4.93;1.10;;;11.10;1.00;;;;;;7373422;19;20042;-73
2023/11/15 09:30:14;;;;;;;7.30;2.55;;;11.40;1.00;;;;;;7379245;19;20365;-73
2023/11/15 09:32:44;;;;;;;9.80;1.65;;;11.70;1.00;;;;;;7379693;19;20007;-73
2023/11/15 09:35:15;;;;;;;5.18;1.27;;;11.80;1.00;;;;;;7377899;19;20007;-73
2023/11/15 09:37:45;;;;;;;2.25;1.20;;;11.60;1.00;;;;;;7377048;19;20029;-73
2023/11/15 09:40:16;;;;;;;3.28;1.05;;;11.60;1.00;;;;;;7377792;19;20014;-75
2023/11/15 09:42:49;;;;;;;2.97;1.08;;;11.80;1.00;;;;;;7378610;19;20098;-76
2023/11/15 09:45:23;;;;;;;2.65;1.15;;;12.10;1.00;;;;;;7377396;19;20396;-76
2023/11/15 09:47:56;;;;;;;2.55;0.82;;;12.10;1.00;;;;;;7379132;19;20014;-74
2023/11/15 09:50:31;;;;;;;2.85;1.10;;;11.40;1.00;;;;;;7379564;19;20006;-74
2023/11/15 09:53:05;;;;;;;2.72;0.90;;;10.90;1.00;;;;;;7377850;19;20015;-74
2023/11/15 09:55:36;;;;;;;3.90;0.80;;;10.90;1.00;;;;;;7377774;19;20003;-74
2023/11/15 09:58:09;;;;;;;5.25;1.30;;;10.90;1.00;;;;;;7378830;19;20017;-75
2023/11/15 10:00:39;;;;;;;5.70;1.33;;;11.00;1.00;;;;;;7379071;19;20470;-75
2023/11/15 10:03:10;;;;;;;3.83;0.90;;;11.10;1.00;;;;;;7379843;19;20006;-75
2023/11/15 10:05:42;;;;;;;4.75;1.02;;;11.20;1.00;;;;;;7379638;19;20023;-72
2023/11/15 10:08:17;;;;;;;9.43;4.43;;;11.20;1.00;;;;;;7358138;19;20563;-73
2023/11/15 10:10:48;;;;;;;2.60;0.88;;;11.10;1.00;;;;;;7378400;19;20011;-73
2023/11/15 10:13:22;;;;;;;3.08;0.95;;;11.20;1.00;;;;;;7378651;19;20014;-73
2023/11/15 10:15:54;;;;;;;5.70;1.15;;;11.30;1.00;;;;;;7376481;19;20102;-73
2023/11/15 10:18:33;;;;;;;3.05;0.93;;;11.20;1.00;;;;;;7377363;19;20037;-73
2023/11/15 10:21:11;;;;;;;3.95;0.90;;;11.30;1.00;;;;;;7376982;19;20033;-73
2023/11/15 10:23:42;;;;;;;3.83;1.15;;;11.50;1.00;;;;;;7376517;19;20011;-73
2023/11/15 10:26:12;;;;;;;2.65;1.17;;;11.30;1.00;;;;;;7375024;19;20018;-72
2023/11/15 10:28:49;;;;;;;2.03;0.88;;;11.10;1.00;;;;;;7377353;19;20380;-73
2023/11/15 10:31:21;;;;;;;1.30;0.80;;;11.10;1.00;;;;;;7376424;19;20015;-73
2023/11/15 10:33:54;;;;;;;2.28;1.02;;;11.40;1.00;;;;;;7374788;19;20014;-73
2023/11/15 10:36:25;;;;;;;3.50;0.70;;;11.30;1.00;;;;;;7375985;19;21152;-73
2023/11/15 10:38:59;;;;;;;2.83;0.85;;;11.30;1.00;;;;;;7376147;19;20018;-73
2023/11/15 10:41:32;;;;;;;6.82;1.45;;;11.30;1.00;;;;;;7378014;19;20011;-73
2023/11/15 10:44:12;;;;;;;3.97;1.00;;;11.50;1.00;;;;;;7374423;19;20095;-73
2023/11/15 10:46:45;;;;;;;4.88;1.30;;;11.40;1.00;;;;;;7371671;19;20078;-74
2023/11/15 10:49:21;;;;;;;4.15;1.27;;;11.40;1.00;;;;;;7375570;19;20344;-73
2023/11/15 10:51:54;;;;;;;3.80;0.95;;;11.40;1.00;;;;;;7375059;19;20479;-73
2023/11/15 10:54:24;;;;;;;3.85;1.30;;;11.50;1.00;;;;;;7374060;19;20046;-74
2023/11/15 10:56:57;;;;;;;5.63;1.02;;;11.60;1.00;;;;;;7375531;19;20032;-74
2023/11/15 10:59:33;;;;;;;4.68;1.20;;;11.60;1.00;;;;;;7375740;19;20011;-74
2023/11/15 11:02:06;;;;;;;5.45;1.77;;;11.50;1.00;;;;;;7377684;19;20414;-74
2023/11/15 11:04:38;;;;;;;4.13;1.27;;;11.60;1.00;;;;;;7373691;19;20006;-73
2023/11/15 11:07:16;;;;;;;3.78;1.23;;;11.60;1.00;;;;;;7374344;19;20036;-74
2023/11/15 11:09:53;;;;;;;2.40;0.90;;;11.90;1.00;;;;;;7375245;19;20351;-73
2023/11/15 11:12:23;;;;;;;3.22;1.27;;;12.00;1.00;;;;;;7374871;19;20010;-73
2023/11/15 11:15:24;;;;;;;4.93;1.40;;;12.20;1.00;;;;;;7381842;19;20022;-74
2023/11/15 11:18:11;;;;;;;4.50;1.40;;;12.40;1.00;;;;;;6870436;19;2004085;-73
2023/11/15 11:20:42;;;;;;;4.80;1.42;;;12.10;1.00;;;;;;7382787;19;20014;-74
2023/11/15 11:23:16;;;;;;;4.70;1.10;;;12.30;1.00;;;;;;7384247;19;20443;-74
2023/11/15 11:25:48;;;;;;;5.28;1.27;;;12.40;1.00;;;;;;7381740;19;20100;-73
2023/11/15 11:28:20;;;;;;;4.60;1.48;;;12.30;1.00;;;;;;7382989;19;20017;-74
2023/11/15 11:31:19;;;;;;;5.38;1.33;;;11.80;1.00;;;;;;7383405;19;20018;-75
2023/11/15 11:36:53;;;;;;;3.53;1.50;;;12.10;1.00;;;;;;7415164;19;20433;-74
2023/11/15 11:39:24;;;;;;;5.20;1.40;;;12.20;1.00;;;;;;7411917;19;20039;-74
2023/11/15 11:41:56;;;;;;;3.22;1.10;;;12.20;1.00;;;;;;7412870;19;20002;-74
2023/11/15 11:44:26;;;;;;;3.15;1.25;;;12.20;1.00;;;;;;7411708;19;20034;-74
2023/11/15 11:47:11;;;;;;;6.55;1.17;;;12.20;1.00;;;;;;7411299;19;20038;-75
2023/11/15 11:49:48;;;;;;;4.80;1.33;;;12.40;1.00;;;;;;7411130;19;20017;-74
2023/11/15 11:52:21;;;;;;;4.22;1.10;;;12.40;1.00;;;;;;7412343;19;20394;-74
2023/11/15 11:54:53;;;;;;;5.07;1.48;;;12.40;1.00;;;;;;7409204;19;20018;-76
2023/11/15 11:57:24;;;;;;;3.58;1.00;;;12.60;1.00;;;;;;7411826;19;20530;-72
2023/11/15 12:00:04;;;;;;;4.82;1.02;;;12.60;1.00;;;;;;7412997;19;20078;-73
2023/11/15 12:02:36;;;;;;;4.00;1.20;;;12.70;1.00;;;;;;7412625;19;20027;-72
2023/11/15 12:05:08;;;;;;;3.80;1.10;;;12.40;1.00;;;;;;7413708;19;19998;-73
2023/11/15 12:07:47;;;;;;;4.13;1.55;;;12.40;1.00;;;;;;7413354;19;20015;-73
2023/11/15 12:10:20;;;;;;;5.65;1.20;;;12.40;1.00;;;;;;7207834;19;2003919;-73
2023/11/15 12:12:57;;;;;;;2.63;1.00;;;12.50;1.00;;;;;;7410622;19;20078;-73
2023/11/15 12:15:27;;;;;;;2.47;1.15;;;12.60;1.00;;;;;;7411929;19;20043;-73
2023/11/15 12:17:58;;;;;;;3.90;1.00;;;12.40;1.00;;;;;;7411253;19;20475;-73
2023/11/15 12:20:30;;;;;;;4.38;1.23;;;12.20;1.00;;;;;;7408009;19;20032;-72
2023/11/15 12:23:08;;;;;;;4.88;1.42;;;12.10;1.00;;;;;;7412044;19;20859;-73
2023/11/15 12:25:47;;;;;;;4.28;1.30;;;12.00;1.00;;;;;;7411497;19;20499;-73
2023/11/15 12:28:21;;;;;;;2.55;1.15;;;12.00;1.00;;;;;;7411223;19;20472;-73
2023/11/15 12:30:53;;;;;;;5.03;1.13;;;12.00;1.00;;;;;;7411183;19;20039;-73
2023/11/15 12:33:23;;;;;;;5.05;1.30;;;12.00;1.00;;;;;;7412349;19;20535;-73
2023/11/15 12:35:56;;;;;;;3.97;1.25;;;12.00;1.00;;;;;;7411368;19;20034;-73
2023/11/15 12:38:29;;;;;;;4.43;1.60;;;12.10;1.00;;;;;;7411575;19;20532;-74
2023/11/15 12:41:08;;;;;;;2.90;1.20;;;11.80;1.00;;;;;;7411654;19;20020;-74
2023/11/15 12:43:38;;;;;;;3.47;1.02;;;11.70;1.00;;;;;;7412191;19;20017;-74
2023/11/15 12:46:18;;;;;;;6.00;1.40;;;11.80;1.00;;;;;;7407756;19;20014;-73
2023/11/15 12:48:52;;;;;;;3.17;1.17;;;11.80;1.00;;;;;;7179823;19;2004029;-74
2023/11/15 12:51:22;;;;;;;4.53;1.30;;;11.70;1.00;;;;;;7382295;19;20015;-74
2023/11/15 12:53:58;;;;;;;6.10;1.48;;;11.70;1.00;;;;;;7381376;19;20007;-73
2023/11/15 12:56:29;;;;;;;4.85;1.33;;;11.60;1.00;;;;;;7381979;19;20517;-75
2023/11/15 12:59:00;;;;;;;3.70;1.20;;;11.80;1.00;;;;;;7381184;19;20361;-73
2023/11/15 13:01:30;;;;;;;2.45;0.93;;;11.80;1.00;;;;;;7381459;19;20021;-73
2023/11/15 13:04:00;;;;;;;1.65;1.00;;;11.50;1.00;;;;;;7379924;19;20044;-74
2023/11/15 13:06:38;;;;;;;2.38;0.90;;;11.50;1.00;;;;;;7380726;19;20014;-73
2023/11/15 13:09:15;;;;;;;2.05;0.93;;;11.40;1.00;;;;;;7381853;19;20014;-74
2023/11/15 13:11:46;;;;;;;3.05;0.93;;;11.30;1.00;;;;;;7379867;19;20011;-73
2023/11/15 13:14:22;;;;;;;4.32;1.50;;;11.10;1.00;;;;;;7379413;19;20010;-73
2023/11/15 13:16:52;;;;;;;2.83;1.05;;;10.90;1.00;;;;;;7381342;19;20025;-73
2023/11/15 13:19:22;;;;;;;4.00;1.38;;;11.00;1.00;;;;;;7381857;19;20015;-73
2023/11/15 13:21:52;;;;;;;12.85;1.10;;;11.00;1.00;;;;;;7380914;19;20328;-73
2023/11/15 13:24:24;;;;;;;3.22;1.10;;;10.90;1.00;;;;;;7380086;19;20018;-74